sensor_id;sensor_type;location;lat;lon;timestamp;P1;durP1;ratioP1;P2;durP2;ratioP2
5060;SDS011;2549;52.128;21.068;2023-01-10T00:01:37;36.88;;;18.80;;
5060;SDS011;2549;52.128;21.068;2023-01-10T00:04:04;41.63;;;20.10;;
5060;SDS011;2549;52.128;21.068;2023-01-10T00:06:30;39.83;;;17.23;;
5060;SDS011;2549;52.128;21.068;2023-01-10T00:08:57;44.22;;;19.58;;
5060;SDS011;2549;52.128;21.068;2023-01-10T00:11:24;38.60;;;19.40;;
5060;SDS011;2549;52.128;21.068;2023-01-10T00:14:14;44.08;;;19.92;;
5060;SDS011;2549;52.128;21.068;2023-01-10T00:16:41;40.42;;;20.42;;
5060;SDS011;2549;52.128;21.068;2023-01-10T00:19:08;37.65;;;18.65;;
5060;SDS011;2549;52.128;21.068;2023-01-10T00:21:36;38.70;;;18.55;;
5060;SDS011;2549;52.128;21.068;2023-01-10T00:24:05;44.83;;;20.95;;
5060;SDS011;2549;52.128;21.068;2023-01-10T00:26:44;44.20;;;19.98;;
5060;SDS011;2549;52.128;21.068;2023-01-10T00:29:19;46.63;;;19.90;;
5060;SDS011;2549;52.128;21.068;2023-01-10T00:31:49;46.22;;;20.92;;
5060;SDS011;2549;52.128;21.068;2023-01-10T00:34:16;43.53;;;20.45;;
5060;SDS011;2549;52.128;21.068;2023-01-10T00:36:43;43.92;;;20.92;;
5060;SDS011;2549;52.128;21.068;2023-01-10T00:39:12;38.80;;;19.83;;
5060;SDS011;2549;52.128;21.068;2023-01-10T00:41:40;43.88;;;19.17;;
5060;SDS011;2549;52.128;21.068;2023-01-10T00:44:26;39.40;;;20.02;;
5060;SDS011;2549;52.128;21.068;2023-01-10T00:46:52;38.78;;;19.90;;
5060;SDS011;2549;52.128;21.068;2023-01-10T00:49:19;42.65;;;19.65;;
5060;SDS011;2549;52.128;21.068;2023-01-10T00:51:46;39.40;;;20.70;;
5060;SDS011;2549;52.128;21.068;2023-01-10T00:54:13;36.10;;;18.60;;
5060;SDS011;2549;52.128;21.068;2023-01-10T00:56:40;42.03;;;20.80;;
5060;SDS011;2549;52.128;21.068;2023-01-10T00:59:07;43.40;;;19.85;;
5060;SDS011;2549;52.128;21.068;2023-01-10T01:01:34;46.97;;;19.77;;
5060;SDS011;2549;52.128;21.068;2023-01-10T01:04:01;46.47;;;21.95;;
5060;SDS011;2549;52.128;21.068;2023-01-10T01:06:29;47.03;;;20.13;;
5060;SDS011;2549;52.128;21.068;2023-01-10T01:08:55;45.28;;;21.33;;
5060;SDS011;2549;52.128;21.068;2023-01-10T01:11:22;43.72;;;20.88;;
5060;SDS011;2549;52.128;21.068;2023-01-10T01:13:50;48.50;;;22.13;;
5060;SDS011;2549;52.128;21.068;2023-01-10T01:16:17;42.45;;;20.50;;
5060;SDS011;2549;52.128;21.068;2023-01-10T01:18:44;43.78;;;21.45;;
5060;SDS011;2549;52.128;21.068;2023-01-10T01:21:11;48.05;;;22.27;;
5060;SDS011;2549;52.128;21.068;2023-01-10T01:23:38;40.15;;;20.45;;
5060;SDS011;2549;52.128;21.068;2023-01-10T01:26:05;51.25;;;23.00;;
5060;SDS011;2549;52.128;21.068;2023-01-10T01:28:31;47.58;;;21.30;;
5060;SDS011;2549;52.128;21.068;2023-01-10T01:30:58;51.45;;;21.63;;
5060;SDS011;2549;52.128;21.068;2023-01-10T01:33:31;48.35;;;21.65;;
5060;SDS011;2549;52.128;21.068;2023-01-10T01:35:58;56.72;;;23.85;;
5060;SDS011;2549;52.128;21.068;2023-01-10T01:38:25;50.83;;;24.58;;
5060;SDS011;2549;52.128;21.068;2023-01-10T01:40:52;62.95;;;22.15;;
5060;SDS011;2549;52.128;21.068;2023-01-10T01:43:26;48.08;;;21.80;;
5060;SDS011;2549;52.128;21.068;2023-01-10T01:45:54;45.33;;;22.42;;
5060;SDS011;2549;52.128;21.068;2023-01-10T01:48:33;49.05;;;25.20;;
5060;SDS011;2549;52.128;21.068;2023-01-10T01:51:18;48.22;;;22.08;;
5060;SDS011;2549;52.128;21.068;2023-01-10T01:53:55;51.55;;;22.50;;
5060;SDS011;2549;52.128;21.068;2023-01-10T01:56:28;59.88;;;23.13;;
5060;SDS011;2549;52.128;21.068;2023-01-10T01:59:01;49.17;;;23.33;;
5060;SDS011;2549;52.128;21.068;2023-01-10T02:01:37;60.60;;;22.60;;
5060;SDS011;2549;52.128;21.068;2023-01-10T02:04:09;54.55;;;23.45;;
5060;SDS011;2549;52.128;21.068;2023-01-10T02:06:41;46.80;;;20.33;;
5060;SDS011;2549;52.128;21.068;2023-01-10T02:11:55;49.20;;;24.17;;
5060;SDS011;2549;52.128;21.068;2023-01-10T02:14:23;54.90;;;24.17;;
5060;SDS011;2549;52.128;21.068;2023-01-10T02:16:51;57.30;;;23.35;;
5060;SDS011;2549;52.128;21.068;2023-01-10T02:19:42;50.95;;;22.88;;
5060;SDS011;2549;52.128;21.068;2023-01-10T02:22:19;53.88;;;25.17;;
5060;SDS011;2549;52.128;21.068;2023-01-10T02:30:40;50.53;;;23.85;;
5060;SDS011;2549;52.128;21.068;2023-01-10T02:33:33;47.72;;;23.60;;
5060;SDS011;2549;52.128;21.068;2023-01-10T02:36:34;55.10;;;24.13;;
5060;SDS011;2549;52.128;21.068;2023-01-10T02:43:02;49.17;;;22.73;;
5060;SDS011;2549;52.128;21.068;2023-01-10T02:45:18;48.35;;;23.25;;
5060;SDS011;2549;52.128;21.068;2023-01-10T02:47:55;55.92;;;25.00;;
5060;SDS011;2549;52.128;21.068;2023-01-10T02:50:41;65.88;;;27.13;;
5060;SDS011;2549;52.128;21.068;2023-01-10T03:07:34;60.80;;;24.85;;
5060;SDS011;2549;52.128;21.068;2023-01-10T03:13:00;56.50;;;23.05;;
5060;SDS011;2549;52.128;21.068;2023-01-10T03:15:29;58.45;;;25.45;;
5060;SDS011;2549;52.128;21.068;2023-01-10T03:18:01;51.53;;;25.80;;
5060;SDS011;2549;52.128;21.068;2023-01-10T03:20:32;50.00;;;23.45;;
5060;SDS011;2549;52.128;21.068;2023-01-10T03:23:02;50.00;;;24.17;;
5060;SDS011;2549;52.128;21.068;2023-01-10T03:25:33;60.70;;;24.42;;
5060;SDS011;2549;52.128;21.068;2023-01-10T03:28:08;53.05;;;24.05;;
5060;SDS011;2549;52.128;21.068;2023-01-10T03:30:50;49.17;;;23.05;;
5060;SDS011;2549;52.128;21.068;2023-01-10T03:33:26;56.90;;;24.02;;
5060;SDS011;2549;52.128;21.068;2023-01-10T03:38:49;55.70;;;24.92;;
5060;SDS011;2549;52.128;21.068;2023-01-10T03:44:21;48.88;;;23.10;;
5060;SDS011;2549;52.128;21.068;2023-01-10T03:47:15;41.92;;;21.52;;
5060;SDS011;2549;52.128;21.068;2023-01-10T03:49:48;55.38;;;24.00;;
5060;SDS011;2549;52.128;21.068;2023-01-10T03:52:19;47.95;;;20.65;;
5060;SDS011;2549;52.128;21.068;2023-01-10T03:54:47;47.15;;;23.27;;
5060;SDS011;2549;52.128;21.068;2023-01-10T03:57:14;48.05;;;20.73;;
5060;SDS011;2549;52.128;21.068;2023-01-10T03:59:43;52.28;;;22.95;;
5060;SDS011;2549;52.128;21.068;2023-01-10T04:02:11;60.03;;;22.60;;
5060;SDS011;2549;52.128;21.068;2023-01-10T04:04:38;50.92;;;21.45;;
5060;SDS011;2549;52.128;21.068;2023-01-10T04:07:04;47.90;;;22.23;;
5060;SDS011;2549;52.128;21.068;2023-01-10T04:09:32;45.75;;;22.73;;
5060;SDS011;2549;52.128;21.068;2023-01-10T04:11:59;53.88;;;24.02;;
5060;SDS011;2549;52.128;21.068;2023-01-10T04:14:26;44.78;;;22.00;;
5060;SDS011;2549;52.128;21.068;2023-01-10T04:16:53;49.60;;;22.00;;
5060;SDS011;2549;52.128;21.068;2023-01-10T04:19:21;47.25;;;20.20;;
5060;SDS011;2549;52.128;21.068;2023-01-10T04:21:47;49.85;;;21.73;;
5060;SDS011;2549;52.128;21.068;2023-01-10T04:24:14;46.05;;;21.52;;
5060;SDS011;2549;52.128;21.068;2023-01-10T04:26:41;45.35;;;20.73;;
5060;SDS011;2549;52.128;21.068;2023-01-10T04:29:08;46.33;;;22.88;;
5060;SDS011;2549;52.128;21.068;2023-01-10T04:31:35;41.75;;;20.08;;
5060;SDS011;2549;52.128;21.068;2023-01-10T04:34:03;47.20;;;22.25;;
5060;SDS011;2549;52.128;21.068;2023-01-10T04:36:29;51.92;;;22.95;;
5060;SDS011;2549;52.128;21.068;2023-01-10T04:38:56;49.83;;;20.77;;
5060;SDS011;2549;52.128;21.068;2023-01-10T04:41:23;48.20;;;22.20;;
5060;SDS011;2549;52.128;21.068;2023-01-10T04:43:50;44.72;;;21.65;;
5060;SDS011;2549;52.128;21.068;2023-01-10T04:46:17;52.20;;;21.23;;
5060;SDS011;2549;52.128;21.068;2023-01-10T04:48:44;43.75;;;20.23;;
5060;SDS011;2549;52.128;21.068;2023-01-10T04:51:11;53.47;;;21.70;;
5060;SDS011;2549;52.128;21.068;2023-01-10T04:53:38;50.58;;;22.05;;
5060;SDS011;2549;52.128;21.068;2023-01-10T04:56:05;46.10;;;20.92;;
5060;SDS011;2549;52.128;21.068;2023-01-10T04:58:34;48.58;;;21.15;;
5060;SDS011;2549;52.128;21.068;2023-01-10T05:01:08;43.35;;;20.13;;
5060;SDS011;2549;52.128;21.068;2023-01-10T05:03:37;41.75;;;21.15;;
5060;SDS011;2549;52.128;21.068;2023-01-10T05:06:04;43.20;;;21.10;;
5060;SDS011;2549;52.128;21.068;2023-01-10T05:08:31;44.95;;;21.20;;
5060;SDS011;2549;52.128;21.068;2023-01-10T05:10:58;49.45;;;21.52;;
5060;SDS011;2549;52.128;21.068;2023-01-10T05:13:25;49.00;;;21.83;;
5060;SDS011;2549;52.128;21.068;2023-01-10T05:15:53;48.65;;;22.27;;
5060;SDS011;2549;52.128;21.068;2023-01-10T05:18:21;58.35;;;21.85;;
5060;SDS011;2549;52.128;21.068;2023-01-10T05:20:48;45.90;;;21.35;;
5060;SDS011;2549;52.128;21.068;2023-01-10T05:23:15;47.47;;;20.55;;
5060;SDS011;2549;52.128;21.068;2023-01-10T05:25:42;46.45;;;21.55;;
5060;SDS011;2549;52.128;21.068;2023-01-10T05:28:09;46.90;;;22.48;;
5060;SDS011;2549;52.128;21.068;2023-01-10T05:30:36;47.00;;;20.75;;
5060;SDS011;2549;52.128;21.068;2023-01-10T05:33:03;51.33;;;23.63;;
5060;SDS011;2549;52.128;21.068;2023-01-10T05:35:30;46.42;;;24.17;;
5060;SDS011;2549;52.128;21.068;2023-01-10T05:37:57;56.10;;;22.83;;
5060;SDS011;2549;52.128;21.068;2023-01-10T05:40:24;48.38;;;22.65;;
5060;SDS011;2549;52.128;21.068;2023-01-10T05:42:51;57.22;;;24.35;;
5060;SDS011;2549;52.128;21.068;2023-01-10T05:45:18;50.88;;;23.30;;
5060;SDS011;2549;52.128;21.068;2023-01-10T05:47:45;60.55;;;24.77;;
5060;SDS011;2549;52.128;21.068;2023-01-10T05:50:11;47.22;;;22.77;;
5060;SDS011;2549;52.128;21.068;2023-01-10T05:52:38;57.00;;;25.80;;
5060;SDS011;2549;52.128;21.068;2023-01-10T05:55:05;57.20;;;23.88;;
5060;SDS011;2549;52.128;21.068;2023-01-10T05:57:32;55.50;;;23.02;;
5060;SDS011;2549;52.128;21.068;2023-01-10T05:59:59;47.60;;;22.45;;
5060;SDS011;2549;52.128;21.068;2023-01-10T06:02:27;49.47;;;21.33;;
5060;SDS011;2549;52.128;21.068;2023-01-10T06:04:54;60.42;;;23.88;;
5060;SDS011;2549;52.128;21.068;2023-01-10T06:07:21;57.90;;;24.38;;
5060;SDS011;2549;52.128;21.068;2023-01-10T06:09:48;53.78;;;23.75;;
5060;SDS011;2549;52.128;21.068;2023-01-10T06:12:16;48.58;;;23.27;;
5060;SDS011;2549;52.128;21.068;2023-01-10T06:14:46;44.92;;;21.88;;
5060;SDS011;2549;52.128;21.068;2023-01-10T06:17:14;52.00;;;21.75;;
5060;SDS011;2549;52.128;21.068;2023-01-10T06:19:41;52.67;;;24.55;;
5060;SDS011;2549;52.128;21.068;2023-01-10T06:22:07;55.45;;;23.65;;
5060;SDS011;2549;52.128;21.068;2023-01-10T06:24:34;59.00;;;21.80;;
5060;SDS011;2549;52.128;21.068;2023-01-10T06:27:01;58.20;;;21.30;;
5060;SDS011;2549;52.128;21.068;2023-01-10T06:29:28;45.80;;;22.50;;
5060;SDS011;2549;52.128;21.068;2023-01-10T06:31:55;55.33;;;22.67;;
5060;SDS011;2549;52.128;21.068;2023-01-10T06:34:22;62.67;;;21.38;;
5060;SDS011;2549;52.128;21.068;2023-01-10T06:36:48;51.17;;;21.23;;
5060;SDS011;2549;52.128;21.068;2023-01-10T06:39:15;49.10;;;23.00;;
5060;SDS011;2549;52.128;21.068;2023-01-10T06:41:42;47.58;;;21.33;;
5060;SDS011;2549;52.128;21.068;2023-01-10T06:44:09;50.58;;;23.38;;
5060;SDS011;2549;52.128;21.068;2023-01-10T06:46:35;43.85;;;20.90;;
5060;SDS011;2549;52.128;21.068;2023-01-10T06:49:02;54.97;;;22.08;;
5060;SDS011;2549;52.128;21.068;2023-01-10T06:51:29;50.00;;;21.02;;
5060;SDS011;2549;52.128;21.068;2023-01-10T06:53:56;57.00;;;22.08;;
5060;SDS011;2549;52.128;21.068;2023-01-10T06:56:23;61.13;;;23.13;;
5060;SDS011;2549;52.128;21.068;2023-01-10T06:58:49;54.05;;;22.95;;
5060;SDS011;2549;52.128;21.068;2023-01-10T07:01:18;49.78;;;20.65;;
5060;SDS011;2549;52.128;21.068;2023-01-10T07:03:46;58.72;;;22.10;;
5060;SDS011;2549;52.128;21.068;2023-01-10T07:06:13;58.20;;;23.45;;
5060;SDS011;2549;52.128;21.068;2023-01-10T07:08:44;60.97;;;24.05;;
5060;SDS011;2549;52.128;21.068;2023-01-10T07:11:12;53.78;;;23.15;;
5060;SDS011;2549;52.128;21.068;2023-01-10T07:13:40;57.28;;;22.50;;
5060;SDS011;2549;52.128;21.068;2023-01-10T07:16:11;57.28;;;21.85;;
5060;SDS011;2549;52.128;21.068;2023-01-10T07:18:40;61.55;;;23.05;;
5060;SDS011;2549;52.128;21.068;2023-01-10T07:21:08;61.33;;;22.92;;
5060;SDS011;2549;52.128;21.068;2023-01-10T07:23:36;57.83;;;22.35;;
5060;SDS011;2549;52.128;21.068;2023-01-10T07:26:04;57.30;;;24.10;;
5060;SDS011;2549;52.128;21.068;2023-01-10T07:28:33;54.40;;;22.38;;
5060;SDS011;2549;52.128;21.068;2023-01-10T07:31:01;56.08;;;23.17;;
5060;SDS011;2549;52.128;21.068;2023-01-10T07:33:29;64.63;;;23.27;;
5060;SDS011;2549;52.128;21.068;2023-01-10T07:35:57;55.05;;;21.63;;
5060;SDS011;2549;52.128;21.068;2023-01-10T07:38:25;61.85;;;23.05;;
5060;SDS011;2549;52.128;21.068;2023-01-10T07:40:52;55.33;;;24.17;;
5060;SDS011;2549;52.128;21.068;2023-01-10T07:43:18;56.42;;;22.55;;
5060;SDS011;2549;52.128;21.068;2023-01-10T07:45:45;59.83;;;24.50;;
5060;SDS011;2549;52.128;21.068;2023-01-10T07:48:12;52.40;;;22.75;;
5060;SDS011;2549;52.128;21.068;2023-01-10T07:50:39;53.50;;;22.25;;
5060;SDS011;2549;52.128;21.068;2023-01-10T07:53:06;59.53;;;23.27;;
5060;SDS011;2549;52.128;21.068;2023-01-10T07:55:34;57.08;;;24.10;;
5060;SDS011;2549;52.128;21.068;2023-01-10T07:58:04;53.08;;;24.13;;
5060;SDS011;2549;52.128;21.068;2023-01-10T08:00:33;56.70;;;22.63;;
5060;SDS011;2549;52.128;21.068;2023-01-10T08:03:00;57.00;;;23.65;;
5060;SDS011;2549;52.128;21.068;2023-01-10T08:05:27;52.72;;;22.85;;
5060;SDS011;2549;52.128;21.068;2023-01-10T08:07:54;56.38;;;22.50;;
5060;SDS011;2549;52.128;21.068;2023-01-10T08:10:25;49.25;;;20.05;;
5060;SDS011;2549;52.128;21.068;2023-01-10T08:12:52;55.60;;;22.52;;
5060;SDS011;2549;52.128;21.068;2023-01-10T08:15:20;52.67;;;23.02;;
5060;SDS011;2549;52.128;21.068;2023-01-10T08:17:47;59.95;;;22.45;;
5060;SDS011;2549;52.128;21.068;2023-01-10T08:20:14;52.38;;;23.38;;
5060;SDS011;2549;52.128;21.068;2023-01-10T08:22:40;43.35;;;19.65;;
5060;SDS011;2549;52.128;21.068;2023-01-10T08:25:08;54.25;;;20.85;;
5060;SDS011;2549;52.128;21.068;2023-01-10T08:27:35;51.83;;;22.52;;
5060;SDS011;2549;52.128;21.068;2023-01-10T08:30:05;50.28;;;22.23;;
5060;SDS011;2549;52.128;21.068;2023-01-10T08:32:33;48.25;;;21.75;;
5060;SDS011;2549;52.128;21.068;2023-01-10T08:34:59;50.85;;;21.98;;
5060;SDS011;2549;52.128;21.068;2023-01-10T08:37:26;53.13;;;22.15;;
5060;SDS011;2549;52.128;21.068;2023-01-10T08:39:54;43.72;;;19.88;;
5060;SDS011;2549;52.128;21.068;2023-01-10T08:42:20;57.38;;;21.67;;
5060;SDS011;2549;52.128;21.068;2023-01-10T08:44:47;47.20;;;21.23;;
5060;SDS011;2549;52.128;21.068;2023-01-10T08:47:14;49.90;;;22.85;;
5060;SDS011;2549;52.128;21.068;2023-01-10T08:49:41;55.75;;;22.02;;
5060;SDS011;2549;52.128;21.068;2023-01-10T08:52:08;51.47;;;21.92;;
5060;SDS011;2549;52.128;21.068;2023-01-10T08:54:35;38.38;;;20.67;;
5060;SDS011;2549;52.128;21.068;2023-01-10T08:57:02;44.50;;;22.50;;
5060;SDS011;2549;52.128;21.068;2023-01-10T08:59:29;52.70;;;22.08;;
5060;SDS011;2549;52.128;21.068;2023-01-10T09:01:56;54.88;;;21.52;;
5060;SDS011;2549;52.128;21.068;2023-01-10T09:04:26;52.25;;;23.20;;
5060;SDS011;2549;52.128;21.068;2023-01-10T09:06:55;55.33;;;23.88;;
5060;SDS011;2549;52.128;21.068;2023-01-10T09:09:21;54.08;;;22.45;;
5060;SDS011;2549;52.128;21.068;2023-01-10T09:11:48;49.75;;;21.42;;
5060;SDS011;2549;52.128;21.068;2023-01-10T09:14:15;48.95;;;21.80;;
5060;SDS011;2549;52.128;21.068;2023-01-10T09:16:42;47.13;;;21.13;;
5060;SDS011;2549;52.128;21.068;2023-01-10T09:19:09;54.50;;;20.55;;
5060;SDS011;2549;52.128;21.068;2023-01-10T09:21:36;52.05;;;21.00;;
5060;SDS011;2549;52.128;21.068;2023-01-10T09:24:03;51.00;;;20.23;;
5060;SDS011;2549;52.128;21.068;2023-01-10T09:26:29;53.92;;;23.35;;
5060;SDS011;2549;52.128;21.068;2023-01-10T09:28:56;51.80;;;20.15;;
5060;SDS011;2549;52.128;21.068;2023-01-10T09:31:23;53.92;;;22.27;;
5060;SDS011;2549;52.128;21.068;2023-01-10T09:33:50;41.03;;;20.45;;
5060;SDS011;2549;52.128;21.068;2023-01-10T09:36:17;46.30;;;21.20;;
5060;SDS011;2549;52.128;21.068;2023-01-10T09:38:44;57.78;;;22.83;;
5060;SDS011;2549;52.128;21.068;2023-01-10T09:44:13;55.05;;;22.17;;
5060;SDS011;2549;52.128;21.068;2023-01-10T09:47:08;47.20;;;22.13;;
5060;SDS011;2549;52.128;21.068;2023-01-10T09:52:22;61.05;;;24.38;;
5060;SDS011;2549;52.128;21.068;2023-01-10T09:55:05;63.25;;;23.05;;
5060;SDS011;2549;52.128;21.068;2023-01-10T09:57:45;47.45;;;21.02;;
5060;SDS011;2549;52.128;21.068;2023-01-10T10:00:14;55.45;;;23.38;;
5060;SDS011;2549;52.128;21.068;2023-01-10T10:02:46;45.55;;;21.35;;
5060;SDS011;2549;52.128;21.068;2023-01-10T10:05:21;42.20;;;21.33;;
5060;SDS011;2549;52.128;21.068;2023-01-10T10:07:58;57.75;;;22.70;;
5060;SDS011;2549;52.128;21.068;2023-01-10T10:10:33;45.80;;;19.27;;
5060;SDS011;2549;52.128;21.068;2023-01-10T10:15:55;46.65;;;21.83;;
5060;SDS011;2549;52.128;21.068;2023-01-10T10:21:55;53.60;;;22.40;;
5060;SDS011;2549;52.128;21.068;2023-01-10T10:24:58;45.30;;;21.58;;
5060;SDS011;2549;52.128;21.068;2023-01-10T10:30:52;54.72;;;20.85;;
5060;SDS011;2549;52.128;21.068;2023-01-10T10:33:41;48.10;;;21.35;;
5060;SDS011;2549;52.128;21.068;2023-01-10T10:39:07;48.15;;;21.17;;
5060;SDS011;2549;52.128;21.068;2023-01-10T10:41:41;50.63;;;22.55;;
5060;SDS011;2549;52.128;21.068;2023-01-10T10:47:18;48.15;;;22.65;;
5060;SDS011;2549;52.128;21.068;2023-01-10T10:52:41;43.00;;;20.52;;
5060;SDS011;2549;52.128;21.068;2023-01-10T10:55:14;47.70;;;21.75;;
5060;SDS011;2549;52.128;21.068;2023-01-10T10:57:42;50.92;;;20.98;;
5060;SDS011;2549;52.128;21.068;2023-01-10T11:00:26;45.20;;;21.40;;
5060;SDS011;2549;52.128;21.068;2023-01-10T11:02:56;48.53;;;22.85;;
5060;SDS011;2549;52.128;21.068;2023-01-10T11:05:36;44.17;;;21.40;;
5060;SDS011;2549;52.128;21.068;2023-01-10T11:08:07;45.08;;;20.65;;
5060;SDS011;2549;52.128;21.068;2023-01-10T11:10:39;52.97;;;22.33;;
5060;SDS011;2549;52.128;21.068;2023-01-10T11:15:46;50.63;;;22.75;;
5060;SDS011;2549;52.128;21.068;2023-01-10T11:23:23;44.58;;;20.20;;
5060;SDS011;2549;52.128;21.068;2023-01-10T11:25:55;51.03;;;21.90;;
5060;SDS011;2549;52.128;21.068;2023-01-10T11:28:24;49.88;;;21.70;;
5060;SDS011;2549;52.128;21.068;2023-01-10T11:30:54;52.90;;;24.55;;
5060;SDS011;2549;52.128;21.068;2023-01-10T11:33:25;64.30;;;23.35;;
5060;SDS011;2549;52.128;21.068;2023-01-10T11:36:03;49.38;;;22.20;;
5060;SDS011;2549;52.128;21.068;2023-01-10T11:38:34;45.85;;;21.95;;
5060;SDS011;2549;52.128;21.068;2023-01-10T11:41:24;47.83;;;21.00;;
5060;SDS011;2549;52.128;21.068;2023-01-10T11:43:52;53.08;;;21.58;;
5060;SDS011;2549;52.128;21.068;2023-01-10T11:46:46;46.97;;;20.58;;
5060;SDS011;2549;52.128;21.068;2023-01-10T11:49:17;44.88;;;19.65;;
5060;SDS011;2549;52.128;21.068;2023-01-10T11:52:05;63.17;;;23.50;;
5060;SDS011;2549;52.128;21.068;2023-01-10T11:54:42;52.95;;;22.85;;
5060;SDS011;2549;52.128;21.068;2023-01-10T11:57:16;38.47;;;18.58;;
5060;SDS011;2549;52.128;21.068;2023-01-10T11:59:53;47.78;;;21.10;;
5060;SDS011;2549;52.128;21.068;2023-01-10T12:02:39;37.35;;;17.55;;
5060;SDS011;2549;52.128;21.068;2023-01-10T12:05:09;40.95;;;17.33;;
5060;SDS011;2549;52.128;21.068;2023-01-10T12:07:56;49.15;;;21.85;;
5060;SDS011;2549;52.128;21.068;2023-01-10T12:10:25;43.75;;;19.35;;
5060;SDS011;2549;52.128;21.068;2023-01-10T12:12:54;41.88;;;18.77;;
5060;SDS011;2549;52.128;21.068;2023-01-10T12:15:27;41.20;;;18.50;;
5060;SDS011;2549;52.128;21.068;2023-01-10T12:17:55;46.13;;;18.13;;
5060;SDS011;2549;52.128;21.068;2023-01-10T12:20:28;36.88;;;17.58;;
5060;SDS011;2549;52.128;21.068;2023-01-10T12:22:58;38.72;;;16.33;;
5060;SDS011;2549;52.128;21.068;2023-01-10T12:25:31;35.33;;;18.13;;
5060;SDS011;2549;52.128;21.068;2023-01-10T12:28:01;38.88;;;17.67;;
5060;SDS011;2549;52.128;21.068;2023-01-10T12:33:14;40.25;;;17.83;;
5060;SDS011;2549;52.128;21.068;2023-01-10T12:35:46;32.25;;;15.55;;
5060;SDS011;2549;52.128;21.068;2023-01-10T12:38:35;33.55;;;16.10;;
5060;SDS011;2549;52.128;21.068;2023-01-10T12:41:37;37.58;;;16.67;;
5060;SDS011;2549;52.128;21.068;2023-01-10T12:45:05;43.45;;;16.23;;
5060;SDS011;2549;52.128;21.068;2023-01-10T12:50:18;40.50;;;17.98;;
5060;SDS011;2549;52.128;21.068;2023-01-10T12:55:35;39.42;;;15.77;;
5060;SDS011;2549;52.128;21.068;2023-01-10T12:58:06;32.30;;;15.07;;
5060;SDS011;2549;52.128;21.068;2023-01-10T13:00:57;27.92;;;14.82;;
5060;SDS011;2549;52.128;21.068;2023-01-10T13:03:26;34.47;;;15.73;;
5060;SDS011;2549;52.128;21.068;2023-01-10T13:05:58;34.83;;;16.08;;
5060;SDS011;2549;52.128;21.068;2023-01-10T13:08:27;31.50;;;14.82;;
5060;SDS011;2549;52.128;21.068;2023-01-10T13:10:58;30.90;;;15.55;;
5060;SDS011;2549;52.128;21.068;2023-01-10T13:13:42;36.13;;;15.13;;
5060;SDS011;2549;52.128;21.068;2023-01-10T13:16:23;37.97;;;14.80;;
5060;SDS011;2549;52.128;21.068;2023-01-10T13:19:04;23.50;;;13.57;;
5060;SDS011;2549;52.128;21.068;2023-01-10T13:21:38;31.23;;;14.70;;
5060;SDS011;2549;52.128;21.068;2023-01-10T13:24:22;30.70;;;14.93;;
5060;SDS011;2549;52.128;21.068;2023-01-10T13:26:54;31.73;;;14.65;;
5060;SDS011;2549;52.128;21.068;2023-01-10T13:29:29;34.15;;;14.65;;
5060;SDS011;2549;52.128;21.068;2023-01-10T13:31:58;27.25;;;13.68;;
5060;SDS011;2549;52.128;21.068;2023-01-10T13:34:31;24.40;;;13.18;;
5060;SDS011;2549;52.128;21.068;2023-01-10T13:37:00;35.05;;;13.32;;
5060;SDS011;2549;52.128;21.068;2023-01-10T13:39:36;30.90;;;14.07;;
5060;SDS011;2549;52.128;21.068;2023-01-10T13:52:54;30.27;;;14.50;;
5060;SDS011;2549;52.128;21.068;2023-01-10T14:04:20;28.17;;;13.90;;
5060;SDS011;2549;52.128;21.068;2023-01-10T14:06:54;21.95;;;13.32;;
5060;SDS011;2549;52.128;21.068;2023-01-10T14:09:42;28.75;;;13.88;;
5060;SDS011;2549;52.128;21.068;2023-01-10T14:14:51;28.75;;;16.15;;
5060;SDS011;2549;52.128;21.068;2023-01-10T14:17:28;37.42;;;17.45;;
5060;SDS011;2549;52.128;21.068;2023-01-10T14:24:57;32.08;;;15.98;;
5060;SDS011;2549;52.128;21.068;2023-01-10T14:27:27;30.50;;;16.02;;
5060;SDS011;2549;52.128;21.068;2023-01-10T14:30:03;32.30;;;15.38;;
5060;SDS011;2549;52.128;21.068;2023-01-10T14:32:33;32.13;;;14.57;;
5060;SDS011;2549;52.128;21.068;2023-01-10T14:35:07;25.27;;;14.43;;
5060;SDS011;2549;52.128;21.068;2023-01-10T14:37:39;35.22;;;15.38;;
5060;SDS011;2549;52.128;21.068;2023-01-10T14:40:26;23.38;;;12.82;;
5060;SDS011;2549;52.128;21.068;2023-01-10T14:42:54;25.88;;;14.63;;
5060;SDS011;2549;52.128;21.068;2023-01-10T14:48:30;32.65;;;16.00;;
5060;SDS011;2549;52.128;21.068;2023-01-10T14:53:56;34.97;;;15.82;;
5060;SDS011;2549;52.128;21.068;2023-01-10T14:56:28;28.83;;;15.77;;
5060;SDS011;2549;52.128;21.068;2023-01-10T15:01:57;33.38;;;15.10;;
5060;SDS011;2549;52.128;21.068;2023-01-10T15:04:27;27.45;;;15.02;;
5060;SDS011;2549;52.128;21.068;2023-01-10T15:06:57;31.15;;;14.98;;
5060;SDS011;2549;52.128;21.068;2023-01-10T15:09:25;28.13;;;14.93;;
5060;SDS011;2549;52.128;21.068;2023-01-10T15:11:52;28.88;;;13.98;;
5060;SDS011;2549;52.128;21.068;2023-01-10T15:14:20;34.67;;;14.25;;
5060;SDS011;2549;52.128;21.068;2023-01-10T15:16:52;28.23;;;15.63;;
5060;SDS011;2549;52.128;21.068;2023-01-10T15:19:22;26.52;;;13.70;;
5060;SDS011;2549;52.128;21.068;2023-01-10T15:21:50;30.00;;;13.10;;
5060;SDS011;2549;52.128;21.068;2023-01-10T15:24:26;25.00;;;13.10;;
5060;SDS011;2549;52.128;21.068;2023-01-10T15:26:59;22.73;;;12.57;;
5060;SDS011;2549;52.128;21.068;2023-01-10T15:29:31;26.35;;;13.32;;
5060;SDS011;2549;52.128;21.068;2023-01-10T15:32:07;18.65;;;10.98;;
5060;SDS011;2549;52.128;21.068;2023-01-10T15:34:55;21.05;;;12.27;;
5060;SDS011;2549;52.128;21.068;2023-01-10T15:37:24;22.05;;;12.27;;
5060;SDS011;2549;52.128;21.068;2023-01-10T15:40:00;21.92;;;10.75;;
5060;SDS011;2549;52.128;21.068;2023-01-10T15:42:29;17.90;;;11.93;;
5060;SDS011;2549;52.128;21.068;2023-01-10T15:44:57;23.90;;;13.00;;
5060;SDS011;2549;52.128;21.068;2023-01-10T15:48:02;23.40;;;11.93;;
5060;SDS011;2549;52.128;21.068;2023-01-10T15:50:31;26.77;;;13.38;;
5060;SDS011;2549;52.128;21.068;2023-01-10T15:53:05;19.13;;;10.98;;
5060;SDS011;2549;52.128;21.068;2023-01-10T16:00:53;22.30;;;11.20;;
5060;SDS011;2549;52.128;21.068;2023-01-10T16:03:32;23.20;;;11.40;;
5060;SDS011;2549;52.128;21.068;2023-01-10T16:06:02;30.20;;;12.30;;
5060;SDS011;2549;52.128;21.068;2023-01-10T16:08:35;22.20;;;12.00;;
5060;SDS011;2549;52.128;21.068;2023-01-10T16:11:04;21.65;;;12.70;;
5060;SDS011;2549;52.128;21.068;2023-01-10T16:13:34;21.63;;;12.70;;
5060;SDS011;2549;52.128;21.068;2023-01-10T16:16:04;26.52;;;13.43;;
5060;SDS011;2549;52.128;21.068;2023-01-10T16:18:40;22.10;;;13.00;;
5060;SDS011;2549;52.128;21.068;2023-01-10T16:21:07;24.48;;;12.93;;
5060;SDS011;2549;52.128;21.068;2023-01-10T16:23:36;27.73;;;13.63;;
5060;SDS011;2549;52.128;21.068;2023-01-10T16:26:04;25.35;;;13.02;;
5060;SDS011;2549;52.128;21.068;2023-01-10T16:28:34;29.58;;;13.73;;
5060;SDS011;2549;52.128;21.068;2023-01-10T16:31:03;22.27;;;13.65;;
5060;SDS011;2549;52.128;21.068;2023-01-10T16:33:32;22.80;;;12.85;;
5060;SDS011;2549;52.128;21.068;2023-01-10T16:35:59;28.90;;;13.75;;
5060;SDS011;2549;52.128;21.068;2023-01-10T16:38:27;33.30;;;13.85;;
5060;SDS011;2549;52.128;21.068;2023-01-10T16:41:01;23.92;;;13.80;;
5060;SDS011;2549;52.128;21.068;2023-01-10T16:43:47;29.98;;;13.88;;
5060;SDS011;2549;52.128;21.068;2023-01-10T16:46:15;27.25;;;13.20;;
5060;SDS011;2549;52.128;21.068;2023-01-10T16:48:41;24.98;;;13.32;;
5060;SDS011;2549;52.128;21.068;2023-01-10T16:51:17;24.80;;;13.68;;
5060;SDS011;2549;52.128;21.068;2023-01-10T16:53:45;29.50;;;13.88;;